sensor_id;sensor_type;location;lat;lon;timestamp;temperature;humidity
35796;DHT22;21916;52.428;13.302;2023-01-10T00:01:11;6.80;99.90
35796;DHT22;21916;52.428;13.302;2023-01-10T00:03:37;6.80;99.90
35796;DHT22;21916;52.428;13.302;2023-01-10T00:06:03;6.80;99.90
35796;DHT22;21916;52.428;13.302;2023-01-10T00:08:29;6.80;99.90
35796;DHT22;21916;52.428;13.302;2023-01-10T00:10:55;6.80;99.90
35796;DHT22;21916;52.428;13.302;2023-01-10T00:13:30;6.80;99.90
35796;DHT22;21916;52.428;13.302;2023-01-10T00:15:56;6.80;99.90
35796;DHT22;21916;52.428;13.302;2023-01-10T00:18:22;6.80;99.90
35796;DHT22;21916;52.428;13.302;2023-01-10T00:20:48;6.80;99.90
35796;DHT22;21916;52.428;13.302;2023-01-10T00:23:15;6.80;99.90
35796;DHT22;21916;52.428;13.302;2023-01-10T00:25:44;6.80;99.90
35796;DHT22;21916;52.428;13.302;2023-01-10T00:28:11;6.80;99.90
35796;DHT22;21916;52.428;13.302;2023-01-10T00:30:50;6.80;99.90
35796;DHT22;21916;52.428;13.302;2023-01-10T00:33:20;6.80;99.90
35796;DHT22;21916;52.428;13.302;2023-01-10T00:35:47;6.90;99.90
35796;DHT22;21916;52.428;13.302;2023-01-10T00:38:14;6.80;99.90
35796;DHT22;21916;52.428;13.302;2023-01-10T00:40:41;6.80;99.90
35796;DHT22;21916;52.428;13.302;2023-01-10T00:43:09;6.90;99.90
35796;DHT22;21916;52.428;13.302;2023-01-10T00:45:53;6.90;99.90
35796;DHT22;21916;52.428;13.302;2023-01-10T00:48:24;6.80;99.90
35796;DHT22;21916;52.428;13.302;2023-01-10T00:50:50;6.80;99.90
35796;DHT22;21916;52.428;13.302;2023-01-10T00:53:16;6.80;99.90
35796;DHT22;21916;52.428;13.302;2023-01-10T00:55:42;6.80;99.90
35796;DHT22;21916;52.428;13.302;2023-01-10T00:58:08;6.80;99.90
35796;DHT22;21916;52.428;13.302;2023-01-10T01:00:40;6.80;99.90
35796;DHT22;21916;52.428;13.302;2023-01-10T01:03:06;6.80;99.90
35796;DHT22;21916;52.428;13.302;2023-01-10T01:05:33;6.80;99.90
35796;DHT22;21916;52.428;13.302;2023-01-10T01:08:00;6.80;99.90
35796;DHT22;21916;52.428;13.302;2023-01-10T01:10:26;6.80;99.90
35796;DHT22;21916;52.428;13.302;2023-01-10T01:12:57;6.80;99.90
35796;DHT22;21916;52.428;13.302;2023-01-10T01:15:24;6.80;99.90
35796;DHT22;21916;52.428;13.302;2023-01-10T01:17:50;6.80;99.90
35796;DHT22;21916;52.428;13.302;2023-01-10T01:20:17;6.80;99.90
35796;DHT22;21916;52.428;13.302;2023-01-10T01:22:43;6.70;99.90
35796;DHT22;21916;52.428;13.302;2023-01-10T01:25:09;6.60;99.90
35796;DHT22;21916;52.428;13.302;2023-01-10T01:27:35;6.60;99.90
35796;DHT22;21916;52.428;13.302;2023-01-10T01:30:04;6.50;99.90
35796;DHT22;21916;52.428;13.302;2023-01-10T01:32:32;6.50;99.90
35796;DHT22;21916;52.428;13.302;2023-01-10T01:34:59;6.50;99.90
35796;DHT22;21916;52.428;13.302;2023-01-10T01:37:25;6.50;99.90
35796;DHT22;21916;52.428;13.302;2023-01-10T01:39:54;6.50;99.90
35796;DHT22;21916;52.428;13.302;2023-01-10T01:42:26;6.50;99.90
35796;DHT22;21916;52.428;13.302;2023-01-10T01:47:58;6.40;99.90
35796;DHT22;21916;52.428;13.302;2023-01-10T01:50:33;6.40;99.90
35796;DHT22;21916;52.428;13.302;2023-01-10T01:53:06;6.50;99.90
35796;DHT22;21916;52.428;13.302;2023-01-10T01:55:34;6.50;99.90
35796;DHT22;21916;52.428;13.302;2023-01-10T01:58:08;6.40;99.90
35796;DHT22;21916;52.428;13.302;2023-01-10T02:00:35;6.40;99.90
35796;DHT22;21916;52.428;13.302;2023-01-10T02:03:03;6.40;99.90
35796;DHT22;21916;52.428;13.302;2023-01-10T02:05:32;6.40;99.90
35796;DHT22;21916;52.428;13.302;2023-01-10T02:07:59;6.40;99.90
35796;DHT22;21916;52.428;13.302;2023-01-10T02:13:18;6.40;99.90
35796;DHT22;21916;52.428;13.302;2023-01-10T02:15:45;6.40;99.90
35796;DHT22;21916;52.428;13.302;2023-01-10T02:18:11;6.40;99.90
35796;DHT22;21916;52.428;13.302;2023-01-10T02:20:54;6.30;99.90
35796;DHT22;21916;52.428;13.302;2023-01-10T02:28:55;6.40;99.90
35796;DHT22;21916;52.428;13.302;2023-01-10T02:31:36;6.40;99.90
35796;DHT22;21916;52.428;13.302;2023-01-10T02:34:28;6.40;99.90
35796;DHT22;21916;52.428;13.302;2023-01-10T02:37:18;6.50;99.90
35796;DHT22;21916;52.428;13.302;2023-01-10T02:40:25;6.40;99.90
35796;DHT22;21916;52.428;13.302;2023-01-10T02:45:37;6.50;99.90
35796;DHT22;21916;52.428;13.302;2023-01-10T02:48:05;6.50;99.90
35796;DHT22;21916;52.428;13.302;2023-01-10T02:53:23;6.60;99.90
35796;DHT22;21916;52.428;13.302;2023-01-10T02:56:23;6.50;99.90
35796;DHT22;21916;52.428;13.302;2023-01-10T02:59:32;6.50;99.90
35796;DHT22;21916;52.428;13.302;2023-01-10T03:05:08;6.60;99.90
35796;DHT22;21916;52.428;13.302;2023-01-10T03:07:42;6.60;99.90
35796;DHT22;21916;52.428;13.302;2023-01-10T03:10:15;6.60;99.90
35796;DHT22;21916;52.428;13.302;2023-01-10T03:13:01;6.60;99.90
35796;DHT22;21916;52.428;13.302;2023-01-10T03:19:36;6.60;99.90
35796;DHT22;21916;52.428;13.302;2023-01-10T03:22:13;6.60;99.90
35796;DHT22;21916;52.428;13.302;2023-01-10T03:24:43;6.60;99.90
35796;DHT22;21916;52.428;13.302;2023-01-10T03:32:50;6.60;99.90
35796;DHT22;21916;52.428;13.302;2023-01-10T03:35:19;6.60;99.90
35796;DHT22;21916;52.428;13.302;2023-01-10T03:38:08;6.60;99.90
35796;DHT22;21916;52.428;13.302;2023-01-10T03:41:17;6.60;99.90
35796;DHT22;21916;52.428;13.302;2023-01-10T03:47:28;6.60;99.90
35796;DHT22;21916;52.428;13.302;2023-01-10T03:50:22;6.60;99.90
35796;DHT22;21916;52.428;13.302;2023-01-10T03:52:47;6.60;99.90
35796;DHT22;21916;52.428;13.302;2023-01-10T03:55:18;6.60;99.90
35796;DHT22;21916;52.428;13.302;2023-01-10T03:57:48;6.60;99.90
35796;DHT22;21916;52.428;13.302;2023-01-10T04:00:15;6.60;99.90
35796;DHT22;21916;52.428;13.302;2023-01-10T04:02:41;6.50;99.90
35796;DHT22;21916;52.428;13.302;2023-01-10T04:05:09;6.60;99.90
35796;DHT22;21916;52.428;13.302;2023-01-10T04:07:37;6.50;99.90
35796;DHT22;21916;52.428;13.302;2023-01-10T04:10:04;6.50;99.90
35796;DHT22;21916;52.428;13.302;2023-01-10T04:12:31;6.50;99.90
35796;DHT22;21916;52.428;13.302;2023-01-10T04:14:57;6.50;99.90
35796;DHT22;21916;52.428;13.302;2023-01-10T04:17:22;6.50;99.90
35796;DHT22;21916;52.428;13.302;2023-01-10T04:19:48;6.50;99.90
35796;DHT22;21916;52.428;13.302;2023-01-10T04:22:14;6.50;99.90
35796;DHT22;21916;52.428;13.302;2023-01-10T04:24:40;6.50;99.90
35796;DHT22;21916;52.428;13.302;2023-01-10T04:27:08;6.40;99.90
35796;DHT22;21916;52.428;13.302;2023-01-10T04:29:34;6.40;99.90
35796;DHT22;21916;52.428;13.302;2023-01-10T04:32:00;6.40;99.90
35796;DHT22;21916;52.428;13.302;2023-01-10T04:34:29;6.30;99.90
35796;DHT22;21916;52.428;13.302;2023-01-10T04:36:55;6.40;99.90
35796;DHT22;21916;52.428;13.302;2023-01-10T04:39:21;6.40;99.90
35796;DHT22;21916;52.428;13.302;2023-01-10T04:41:47;6.40;99.90
35796;DHT22;21916;52.428;13.302;2023-01-10T04:44:13;6.40;99.90
35796;DHT22;21916;52.428;13.302;2023-01-10T04:46:39;6.40;99.90
35796;DHT22;21916;52.428;13.302;2023-01-10T04:49:08;6.40;99.90
35796;DHT22;21916;52.428;13.302;2023-01-10T04:51:34;6.40;99.90
35796;DHT22;21916;52.428;13.302;2023-01-10T04:54:01;6.30;99.90
35796;DHT22;21916;52.428;13.302;2023-01-10T04:56:27;6.30;99.90
35796;DHT22;21916;52.428;13.302;2023-01-10T04:58:54;6.30;99.90
35796;DHT22;21916;52.428;13.302;2023-01-10T05:01:25;6.30;99.90
35796;DHT22;21916;52.428;13.302;2023-01-10T05:03:53;6.30;99.90
35796;DHT22;21916;52.428;13.302;2023-01-10T05:06:20;6.30;99.90
35796;DHT22;21916;52.428;13.302;2023-01-10T05:08:46;6.30;99.90
35796;DHT22;21916;52.428;13.302;2023-01-10T05:11:13;6.30;99.90
35796;DHT22;21916;52.428;13.302;2023-01-10T05:13:40;6.30;99.90
35796;DHT22;21916;52.428;13.302;2023-01-10T05:16:06;6.30;99.90
35796;DHT22;21916;52.428;13.302;2023-01-10T05:18:33;6.30;99.90
35796;DHT22;21916;52.428;13.302;2023-01-10T05:21:03;6.30;99.90
35796;DHT22;21916;52.428;13.302;2023-01-10T05:23:30;6.40;99.90
35796;DHT22;21916;52.428;13.302;2023-01-10T05:25:56;6.30;99.90
35796;DHT22;21916;52.428;13.302;2023-01-10T05:28:22;6.30;99.90
35796;DHT22;21916;52.428;13.302;2023-01-10T05:30:49;6.30;99.90
35796;DHT22;21916;52.428;13.302;2023-01-10T05:33:15;6.30;99.90
35796;DHT22;21916;52.428;13.302;2023-01-10T05:35:41;6.40;99.90
35796;DHT22;21916;52.428;13.302;2023-01-10T05:38:07;6.40;99.90
35796;DHT22;21916;52.428;13.302;2023-01-10T05:40:33;6.50;99.90
35796;DHT22;21916;52.428;13.302;2023-01-10T05:43:02;6.40;99.90
35796;DHT22;21916;52.428;13.302;2023-01-10T05:45:28;6.40;99.90
35796;DHT22;21916;52.428;13.302;2023-01-10T05:47:54;6.40;99.90
35796;DHT22;21916;52.428;13.302;2023-01-10T05:50:20;6.40;99.90
35796;DHT22;21916;52.428;13.302;2023-01-10T05:52:45;6.40;99.90
35796;DHT22;21916;52.428;13.302;2023-01-10T05:55:12;6.50;99.90
35796;DHT22;21916;52.428;13.302;2023-01-10T05:57:38;6.50;99.90
35796;DHT22;21916;52.428;13.302;2023-01-10T06:00:08;6.50;99.90
35796;DHT22;21916;52.428;13.302;2023-01-10T06:02:37;6.50;99.90
35796;DHT22;21916;52.428;13.302;2023-01-10T06:05:04;6.50;99.90
35796;DHT22;21916;52.428;13.302;2023-01-10T06:07:31;6.50;99.90
35796;DHT22;21916;52.428;13.302;2023-01-10T06:09:58;6.40;99.90
35796;DHT22;21916;52.428;13.302;2023-01-10T06:12:24;6.40;99.90
35796;DHT22;21916;52.428;13.302;2023-01-10T06:14:50;6.40;99.90
35796;DHT22;21916;52.428;13.302;2023-01-10T06:17:17;6.40;99.90
35796;DHT22;21916;52.428;13.302;2023-01-10T06:19:43;6.40;99.90
35796;DHT22;21916;52.428;13.302;2023-01-10T06:22:09;6.40;99.90
35796;DHT22;21916;52.428;13.302;2023-01-10T06:24:35;6.50;99.90
35796;DHT22;21916;52.428;13.302;2023-01-10T06:27:01;6.50;99.90
35796;DHT22;21916;52.428;13.302;2023-01-10T06:29:27;6.50;99.90
35796;DHT22;21916;52.428;13.302;2023-01-10T06:31:53;6.50;99.90
35796;DHT22;21916;52.428;13.302;2023-01-10T06:34:19;6.40;99.90
35796;DHT22;21916;52.428;13.302;2023-01-10T06:36:46;6.40;99.90
35796;DHT22;21916;52.428;13.302;2023-01-10T06:39:11;6.40;99.90
35796;DHT22;21916;52.428;13.302;2023-01-10T06:41:37;6.40;99.90
35796;DHT22;21916;52.428;13.302;2023-01-10T06:44:03;6.40;99.90
35796;DHT22;21916;52.428;13.302;2023-01-10T06:46:29;6.40;99.90
35796;DHT22;21916;52.428;13.302;2023-01-10T06:48:55;6.40;99.90
35796;DHT22;21916;52.428;13.302;2023-01-10T06:51:21;6.50;99.90
35796;DHT22;21916;52.428;13.302;2023-01-10T06:53:47;6.50;99.90
35796;DHT22;21916;52.428;13.302;2023-01-10T06:56:12;6.60;99.90
35796;DHT22;21916;52.428;13.302;2023-01-10T06:58:39;6.50;99.90
35796;DHT22;21916;52.428;13.302;2023-01-10T07:01:16;6.50;99.90
35796;DHT22;21916;52.428;13.302;2023-01-10T07:03:43;6.50;99.90
35796;DHT22;21916;52.428;13.302;2023-01-10T07:06:09;6.50;99.90
35796;DHT22;21916;52.428;13.302;2023-01-10T07:08:36;6.50;99.90
35796;DHT22;21916;52.428;13.302;2023-01-10T07:11:04;6.60;99.90
35796;DHT22;21916;52.428;13.302;2023-01-10T07:13:32;6.50;99.90
35796;DHT22;21916;52.428;13.302;2023-01-10T07:16:02;6.60;99.90
35796;DHT22;21916;52.428;13.302;2023-01-10T07:18:34;6.60;99.90
35796;DHT22;21916;52.428;13.302;2023-01-10T07:21:02;6.50;99.90
35796;DHT22;21916;52.428;13.302;2023-01-10T07:23:28;6.50;99.90
35796;DHT22;21916;52.428;13.302;2023-01-10T07:25:56;6.50;99.90
35796;DHT22;21916;52.428;13.302;2023-01-10T07:28:23;6.40;99.90
35796;DHT22;21916;52.428;13.302;2023-01-10T07:30:49;6.40;99.90
35796;DHT22;21916;52.428;13.302;2023-01-10T07:33:15;6.40;99.90
35796;DHT22;21916;52.428;13.302;2023-01-10T07:35:41;6.30;99.90
35796;DHT22;21916;52.428;13.302;2023-01-10T07:38:08;6.30;99.90
35796;DHT22;21916;52.428;13.302;2023-01-10T07:40:34;6.30;99.90
35796;DHT22;21916;52.428;13.302;2023-01-10T07:43:01;6.30;99.90
35796;DHT22;21916;52.428;13.302;2023-01-10T07:45:29;6.30;99.90
35796;DHT22;21916;52.428;13.302;2023-01-10T07:48:00;6.30;99.90
35796;DHT22;21916;52.428;13.302;2023-01-10T07:50:36;6.20;99.90
35796;DHT22;21916;52.428;13.302;2023-01-10T07:53:05;6.20;99.90
35796;DHT22;21916;52.428;13.302;2023-01-10T07:55:32;6.20;99.90
35796;DHT22;21916;52.428;13.302;2023-01-10T07:58:00;6.20;99.90
35796;DHT22;21916;52.428;13.302;2023-01-10T08:00:26;6.20;99.90
35796;DHT22;21916;52.428;13.302;2023-01-10T08:02:53;6.20;99.90
35796;DHT22;21916;52.428;13.302;2023-01-10T08:05:20;6.20;99.90
35796;DHT22;21916;52.428;13.302;2023-01-10T08:07:46;6.30;99.90
35796;DHT22;21916;52.428;13.302;2023-01-10T08:10:11;6.30;99.90
35796;DHT22;21916;52.428;13.302;2023-01-10T08:12:37;6.40;99.90
35796;DHT22;21916;52.428;13.302;2023-01-10T08:15:03;6.40;99.90
35796;DHT22;21916;52.428;13.302;2023-01-10T08:17:32;6.50;99.90
35796;DHT22;21916;52.428;13.302;2023-01-10T08:19:58;6.50;99.90
35796;DHT22;21916;52.428;13.302;2023-01-10T08:22:24;6.50;99.90
35796;DHT22;21916;52.428;13.302;2023-01-10T08:24:50;6.50;99.90
35796;DHT22;21916;52.428;13.302;2023-01-10T08:27:16;6.50;99.90
35796;DHT22;21916;52.428;13.302;2023-01-10T08:29:42;6.50;99.90
35796;DHT22;21916;52.428;13.302;2023-01-10T08:32:08;6.50;99.90
35796;DHT22;21916;52.428;13.302;2023-01-10T08:34:34;6.60;99.90
35796;DHT22;21916;52.428;13.302;2023-01-10T08:37:00;6.60;99.90
35796;DHT22;21916;52.428;13.302;2023-01-10T08:39:27;6.60;99.90
35796;DHT22;21916;52.428;13.302;2023-01-10T08:41:55;6.60;99.90
35796;DHT22;21916;52.428;13.302;2023-01-10T08:44:21;6.60;99.90
35796;DHT22;21916;52.428;13.302;2023-01-10T08:46:47;6.60;99.90
35796;DHT22;21916;52.428;13.302;2023-01-10T08:49:13;6.70;99.90
35796;DHT22;21916;52.428;13.302;2023-01-10T08:51:39;6.70;99.90
35796;DHT22;21916;52.428;13.302;2023-01-10T08:54:05;6.70;99.90
35796;DHT22;21916;52.428;13.302;2023-01-10T08:56:31;6.60;99.90
35796;DHT22;21916;52.428;13.302;2023-01-10T08:58:57;6.70;99.90
35796;DHT22;21916;52.428;13.302;2023-01-10T09:01:23;6.70;99.90
35796;DHT22;21916;52.428;13.302;2023-01-10T09:03:49;6.80;99.90
35796;DHT22;21916;52.428;13.302;2023-01-10T09:06:14;6.80;99.90
35796;DHT22;21916;52.428;13.302;2023-01-10T09:08:40;7.00;99.90
35796;DHT22;21916;52.428;13.302;2023-01-10T09:11:06;7.00;99.90
35796;DHT22;21916;52.428;13.302;2023-01-10T09:13:32;7.10;99.90
35796;DHT22;21916;52.428;13.302;2023-01-10T09:15:58;7.20;99.90
35796;DHT22;21916;52.428;13.302;2023-01-10T09:18:25;7.20;99.90
35796;DHT22;21916;52.428;13.302;2023-01-10T09:20:52;7.20;99.90
35796;DHT22;21916;52.428;13.302;2023-01-10T09:23:20;7.10;99.90
35796;DHT22;21916;52.428;13.302;2023-01-10T09:25:51;7.10;99.90
35796;DHT22;21916;52.428;13.302;2023-01-10T09:28:18;7.00;99.90
35796;DHT22;21916;52.428;13.302;2023-01-10T09:30:45;6.90;99.90
35796;DHT22;21916;52.428;13.302;2023-01-10T09:33:13;6.90;99.90
35796;DHT22;21916;52.428;13.302;2023-01-10T09:35:41;6.90;99.90
35796;DHT22;21916;52.428;13.302;2023-01-10T09:38:10;6.90;99.90
35796;DHT22;21916;52.428;13.302;2023-01-10T09:45:00;6.90;99.90
35796;DHT22;21916;52.428;13.302;2023-01-10T09:47:15;6.90;99.90
35796;DHT22;21916;52.428;13.302;2023-01-10T09:53:01;7.00;99.90
35796;DHT22;21916;52.428;13.302;2023-01-10T09:55:34;7.00;99.90
35796;DHT22;21916;52.428;13.302;2023-01-10T09:58:09;7.00;99.90
35796;DHT22;21916;52.428;13.302;2023-01-10T10:00:59;7.00;99.90
35796;DHT22;21916;52.428;13.302;2023-01-10T10:03:47;7.00;99.90
35796;DHT22;21916;52.428;13.302;2023-01-10T10:06:16;7.00;99.90
35796;DHT22;21916;52.428;13.302;2023-01-10T10:08:44;7.10;99.90
35796;DHT22;21916;52.428;13.302;2023-01-10T10:16:57;7.20;99.90
35796;DHT22;21916;52.428;13.302;2023-01-10T10:23:02;8.10;99.90
35796;DHT22;21916;52.428;13.302;2023-01-10T10:25:42;8.20;99.90
35796;DHT22;21916;52.428;13.302;2023-01-10T10:37:01;7.80;99.90
35796;DHT22;21916;52.428;13.302;2023-01-10T10:39:51;7.70;99.90
35796;DHT22;21916;52.428;13.302;2023-01-10T10:42:18;7.70;99.90
35796;DHT22;21916;52.428;13.302;2023-01-10T10:47:21;7.70;99.90
35796;DHT22;21916;52.428;13.302;2023-01-10T10:52:38;7.80;99.90
35796;DHT22;21916;52.428;13.302;2023-01-10T10:55:06;7.70;99.90
35796;DHT22;21916;52.428;13.302;2023-01-10T10:57:36;7.70;99.90
35796;DHT22;21916;52.428;13.302;2023-01-10T11:00:04;7.70;99.90
35796;DHT22;21916;52.428;13.302;2023-01-10T11:02:39;7.70;99.90
35796;DHT22;21916;52.428;13.302;2023-01-10T11:05:06;7.70;99.90
35796;DHT22;21916;52.428;13.302;2023-01-10T11:07:34;7.80;99.90
35796;DHT22;21916;52.428;13.302;2023-01-10T11:10:04;8.00;99.90
35796;DHT22;21916;52.428;13.302;2023-01-10T11:12:54;8.20;99.90
35796;DHT22;21916;52.428;13.302;2023-01-10T11:15:44;8.70;99.90
35796;DHT22;21916;52.428;13.302;2023-01-10T11:18:15;10.30;99.90
35796;DHT22;21916;52.428;13.302;2023-01-10T11:21:11;11.70;99.90
35796;DHT22;21916;52.428;13.302;2023-01-10T11:26:06;14.90;99.90
35796;DHT22;21916;52.428;13.302;2023-01-10T11:28:32;15.00;99.90
35796;DHT22;21916;52.428;13.302;2023-01-10T11:30:59;14.90;99.90
35796;DHT22;21916;52.428;13.302;2023-01-10T11:33:29;14.20;99.90
35796;DHT22;21916;52.428;13.302;2023-01-10T11:36:07;13.60;99.90
35796;DHT22;21916;52.428;13.302;2023-01-10T11:38:34;13.00;99.90
35796;DHT22;21916;52.428;13.302;2023-01-10T11:41:24;12.30;99.90
35796;DHT22;21916;52.428;13.302;2023-01-10T11:43:50;11.50;99.90
35796;DHT22;21916;52.428;13.302;2023-01-10T11:46:23;11.30;99.90
35796;DHT22;21916;52.428;13.302;2023-01-10T11:49:04;10.70;99.90
35796;DHT22;21916;52.428;13.302;2023-01-10T11:51:34;10.20;99.90
35796;DHT22;21916;52.428;13.302;2023-01-10T11:54:10;9.80;99.90
35796;DHT22;21916;52.428;13.302;2023-01-10T11:56:37;9.60;99.90
35796;DHT22;21916;52.428;13.302;2023-01-10T11:59:14;9.50;99.90
35796;DHT22;21916;52.428;13.302;2023-01-10T12:01:56;9.40;99.90
35796;DHT22;21916;52.428;13.302;2023-01-10T12:04:26;9.30;99.90
35796;DHT22;21916;52.428;13.302;2023-01-10T12:06:56;9.40;99.90
35796;DHT22;21916;52.428;13.302;2023-01-10T12:09:42;9.40;99.90
35796;DHT22;21916;52.428;13.302;2023-01-10T12:14:52;10.40;99.90
35796;DHT22;21916;52.428;13.302;2023-01-10T12:17:33;12.00;99.90
35796;DHT22;21916;52.428;13.302;2023-01-10T12:20:02;13.00;99.90
35796;DHT22;21916;52.428;13.302;2023-01-10T12:22:32;14.10;99.90
35796;DHT22;21916;52.428;13.302;2023-01-10T12:25:04;14.70;99.90
35796;DHT22;21916;52.428;13.302;2023-01-10T12:27:31;15.20;99.90
35796;DHT22;21916;52.428;13.302;2023-01-10T12:32:38;16.90;98.50
35796;DHT22;21916;52.428;13.302;2023-01-10T12:35:15;17.50;97.50
35796;DHT22;21916;52.428;13.302;2023-01-10T12:37:47;17.50;97.40
35796;DHT22;21916;52.428;13.302;2023-01-10T12:40:29;18.00;96.30
35796;DHT22;21916;52.428;13.302;2023-01-10T12:43:12;16.90;96.10
35796;DHT22;21916;52.428;13.302;2023-01-10T12:46:05;15.30;98.40
35796;DHT22;21916;52.428;13.302;2023-01-10T12:51:14;12.90;99.90
35796;DHT22;21916;52.428;13.302;2023-01-10T12:53:47;11.90;99.90
35796;DHT22;21916;52.428;13.302;2023-01-10T12:56:15;11.20;99.90
35796;DHT22;21916;52.428;13.302;2023-01-10T12:58:49;10.70;99.90
35796;DHT22;21916;52.428;13.302;2023-01-10T13:01:28;10.50;99.90
35796;DHT22;21916;52.428;13.302;2023-01-10T13:04:05;10.10;99.90
35796;DHT22;21916;52.428;13.302;2023-01-10T13:06:37;9.80;99.90
35796;DHT22;21916;52.428;13.302;2023-01-10T13:11:58;9.40;99.90
35796;DHT22;21916;52.428;13.302;2023-01-10T13:14:30;9.20;99.90
35796;DHT22;21916;52.428;13.302;2023-01-10T13:17:07;9.00;99.90
35796;DHT22;21916;52.428;13.302;2023-01-10T13:19:35;8.90;99.90
35796;DHT22;21916;52.428;13.302;2023-01-10T13:22:21;8.80;99.90
35796;DHT22;21916;52.428;13.302;2023-01-10T13:24:55;8.60;99.90
35796;DHT22;21916;52.428;13.302;2023-01-10T13:27:22;8.50;99.90
35796;DHT22;21916;52.428;13.302;2023-01-10T13:29:49;8.40;99.90
35796;DHT22;21916;52.428;13.302;2023-01-10T13:32:21;8.40;99.90
35796;DHT22;21916;52.428;13.302;2023-01-10T13:34:48;8.40;99.90
35796;DHT22;21916;52.428;13.302;2023-01-10T13:37:23;8.40;99.90
35796;DHT22;21916;52.428;13.302;2023-01-10T13:39:55;8.30;99.90
35796;DHT22;21916;52.428;13.302;2023-01-10T13:42:30;8.30;99.90
35796;DHT22;21916;52.428;13.302;2023-01-10T13:45:17;8.20;99.90
35796;DHT22;21916;52.428;13.302;2023-01-10T14:00:51;8.50;99.90
35796;DHT22;21916;52.428;13.302;2023-01-10T14:03:52;8.70;99.90
35796;DHT22;21916;52.428;13.302;2023-01-10T14:08:58;9.00;99.90
35796;DHT22;21916;52.428;13.302;2023-01-10T14:14:38;8.70;99.90
35796;DHT22;21916;52.428;13.302;2023-01-10T14:19:46;8.30;99.90
35796;DHT22;21916;52.428;13.302;2023-01-10T14:22:30;8.20;99.90
35796;DHT22;21916;52.428;13.302;2023-01-10T14:24:58;8.20;99.90
35796;DHT22;21916;52.428;13.302;2023-01-10T14:27:34;8.20;99.90
35796;DHT22;21916;52.428;13.302;2023-01-10T14:30:01;8.20;99.90
35796;DHT22;21916;52.428;13.302;2023-01-10T14:32:37;8.10;99.90
35796;DHT22;21916;52.428;13.302;2023-01-10T14:35:06;8.20;99.90
35796;DHT22;21916;52.428;13.302;2023-01-10T14:37:39;8.00;99.90
35796;DHT22;21916;52.428;13.302;2023-01-10T14:43:04;7.90;99.90
35796;DHT22;21916;52.428;13.302;2023-01-10T14:48:39;7.70;99.90
35796;DHT22;21916;52.428;13.302;2023-01-10T14:54:11;7.70;99.90
35796;DHT22;21916;52.428;13.302;2023-01-10T14:56:48;7.70;99.90
35796;DHT22;21916;52.428;13.302;2023-01-10T14:59:33;7.70;99.90
35796;DHT22;21916;52.428;13.302;2023-01-10T15:02:18;7.60;99.90
35796;DHT22;21916;52.428;13.302;2023-01-10T15:05:00;7.60;99.90
35796;DHT22;21916;52.428;13.302;2023-01-10T15:07:27;7.60;99.90
35796;DHT22;21916;52.428;13.302;2023-01-10T15:09:59;7.60;99.90
35796;DHT22;21916;52.428;13.302;2023-01-10T15:12:31;7.60;99.90
35796;DHT22;21916;52.428;13.302;2023-01-10T15:15:14;7.60;99.90
35796;DHT22;21916;52.428;13.302;2023-01-10T15:17:42;7.50;99.90
35796;DHT22;21916;52.428;13.302;2023-01-10T15:20:13;7.50;99.90
35796;DHT22;21916;52.428;13.302;2023-01-10T15:22:44;7.40;99.90
35796;DHT22;21916;52.428;13.302;2023-01-10T15:27:45;7.40;99.90
35796;DHT22;21916;52.428;13.302;2023-01-10T15:30:18;7.40;99.90
35796;DHT22;21916;52.428;13.302;2023-01-10T15:32:49;7.40;99.90
35796;DHT22;21916;52.428;13.302;2023-01-10T15:35:15;7.40;99.90
35796;DHT22;21916;52.428;13.302;2023-01-10T15:37:49;7.30;99.90
35796;DHT22;21916;52.428;13.302;2023-01-10T15:40:21;7.30;99.90
35796;DHT22;21916;52.428;13.302;2023-01-10T15:42:47;7.30;99.90
35796;DHT22;21916;52.428;13.302;2023-01-10T15:45:32;7.30;99.90
35796;DHT22;21916;52.428;13.302;2023-01-10T15:48:04;7.30;99.90
35796;DHT22;21916;52.428;13.302;2023-01-10T15:50:38;7.30;99.90
35796;DHT22;21916;52.428;13.302;2023-01-10T15:53:18;7.40;99.90
35796;DHT22;21916;52.428;13.302;2023-01-10T15:55:53;7.30;99.90
35796;DHT22;21916;52.428;13.302;2023-01-10T15:58:29;7.30;99.90
35796;DHT22;21916;52.428;13.302;2023-01-10T16:00:56;7.30;99.90
35796;DHT22;21916;52.428;13.302;2023-01-10T16:03:34;7.30;99.90
35796;DHT22;21916;52.428;13.302;2023-01-10T16:06:02;7.30;99.90
35796;DHT22;21916;52.428;13.302;2023-01-10T16:08:34;7.20;99.90
35796;DHT22;21916;52.428;13.302;2023-01-10T16:11:07;7.30;99.90
35796;DHT22;21916;52.428;13.302;2023-01-10T16:13:39;7.20;99.90
35796;DHT22;21916;52.428;13.302;2023-01-10T16:16:16;7.30;99.90
35796;DHT22;21916;52.428;13.302;2023-01-10T16:18:42;7.20;99.90
35796;DHT22;21916;52.428;13.302;2023-01-10T16:21:10;7.30;99.90
35796;DHT22;21916;52.428;13.302;2023-01-10T16:23:42;7.20;99.90
35796;DHT22;21916;52.428;13.302;2023-01-10T16:26:10;7.30;99.90
35796;DHT22;21916;52.428;13.302;2023-01-10T16:28:36;7.20;99.90
35796;DHT22;21916;52.428;13.302;2023-01-10T16:31:09;7.10;99.90
35796;DHT22;21916;52.428;13.302;2023-01-10T16:33:36;7.10;99.90
35796;DHT22;21916;52.428;13.302;2023-01-10T16:36:03;7.10;99.90
35796;DHT22;21916;52.428;13.302;2023-01-10T16:38:29;7.10;99.90
35796;DHT22;21916;52.428;13.302;2023-01-10T16:40:58;7.00;99.90
35796;DHT22;21916;52.428;13.302;2023-01-10T16:43:25;7.00;99.90
35796;DHT22;21916;52.428;13.302;2023-01-10T16:45:54;7.00;99.90
35796;DHT22;21916;52.428;13.302;2023-01-10T16:48:28;6.90;99.90
35796;DHT22;21916;52.428;13.302;2023-01-10T16:50:55;6.90;99.90
35796;DHT22;21916;52.428;13.302;2023-01-10T16:53:28;6.90;99.90
35796;DHT22;21916;52.428;13.302;2023-01-10T16:55:54;6.80;99.90
35796;DHT22;21916;52.428;13.302;2023-01-10T16:58:23;6.80;99.90
35796;DHT22;21916;52.428;13.302;2023-01-10T17:00:49;6.70;99.90
35796;DHT22;21916;52.428;13.302;2023-01-10T17:03:21;6.70;99.90
35796;DHT22;21916;52.428;13.302;2023-01-10T17:05:48;6.70;99.90
35796;DHT22;21916;52.428;13.302;2023-01-10T17:08:20;6.60;99.90
35796;DHT22;21916;52.428;13.302;2023-01-10T17:10:52;6.50;99.90
35796;DHT22;21916;52.428;13.302;2023-01-10T17:13:25;6.50;99.90
35796;DHT22;21916;52.428;13.302;2023-01-10T17:15:51;6.40;99.90
35796;DHT22;21916;52.428;13.302;2023-01-10T17:18:17;6.30;99.90
35796;DHT22;21916;52.428;13.302;2023-01-10T17:20:43;6.20;99.90
35796;DHT22;21916;52.428;13.302;2023-01-10T17:23:11;6.20;99.90
35796;DHT22;21916;52.428;13.302;2023-01-10T17:25:37;6.20;99.90
35796;DHT22;21916;52.428;13.302;2023-01-10T17:28:06;6.30;99.90
35796;DHT22;21916;52.428;13.302;2023-01-10T17:30:31;6.20;99.90
35796;DHT22;21916;52.428;13.302;2023-01-10T17:32:57;6.20;99.90
35796;DHT22;21916;52.428;13.302;2023-01-10T17:35:24;6.10;99.90
35796;DHT22;21916;52.428;13.302;2023-01-10T17:37:53;6.10;99.90
35796;DHT22;21916;52.428;13.302;2023-01-10T17:40:20;6.10;99.90